createdAt,value
2022-11-10T00:00:46.334Z,10.40
2022-11-10T00:01:46.332Z,10.40
2022-11-10T00:02:46.331Z,10.41
2022-11-10T00:03:46.391Z,10.40
2022-11-10T00:04:46.287Z,10.38
2022-11-10T00:05:46.297Z,10.38
2022-11-10T00:06:46.305Z,10.37
2022-11-10T00:07:46.276Z,10.34
2022-11-10T00:08:46.252Z,10.30
2022-11-10T00:09:46.316Z,10.30
2022-11-10T00:10:46.242Z,10.28
2022-11-10T00:11:46.237Z,10.28
2022-11-10T00:12:46.216Z,10.28
2022-11-10T00:13:46.213Z,10.28
2022-11-10T00:14:46.173Z,10.28
2022-11-10T00:15:46.154Z,10.25
2022-11-10T00:16:46.220Z,10.23
2022-11-10T00:17:46.272Z,10.25
2022-11-10T00:18:46.144Z,10.23
2022-11-10T00:19:46.136Z,10.26
2022-11-10T00:20:46.107Z,10.25
2022-11-10T00:21:46.101Z,10.25
2022-11-10T00:22:47.055Z,10.26
2022-11-10T00:23:46.096Z,10.26
2022-11-10T00:24:46.062Z,10.30
2022-11-10T00:25:46.997Z,10.33
2022-11-10T00:26:46.070Z,10.30
2022-11-10T00:27:46.981Z,10.31
2022-11-10T00:28:47.008Z,10.31
2022-11-10T00:29:46.029Z,10.30
2022-11-10T00:30:47.000Z,10.33
2022-11-10T00:31:45.978Z,10.34
2022-11-10T00:32:45.978Z,10.34
2022-11-10T00:33:45.964Z,10.37
2022-11-10T00:34:45.948Z,10.37
2022-11-10T00:35:45.978Z,10.37
2022-11-10T00:36:46.010Z,10.37
2022-11-10T00:37:45.913Z,10.38
2022-11-10T00:38:45.900Z,10.38
2022-11-10T00:39:45.890Z,10.40
2022-11-10T00:40:45.919Z,10.40
2022-11-10T00:41:45.902Z,10.40
2022-11-10T00:42:45.850Z,10.38
2022-11-10T00:43:45.849Z,10.40
2022-11-10T00:44:45.858Z,10.40
2022-11-10T00:45:45.834Z,10.40
2022-11-10T00:46:45.827Z,10.38
2022-11-10T00:47:45.861Z,10.41
2022-11-10T00:48:45.803Z,10.41
2022-11-10T00:49:45.803Z,10.40
2022-11-10T00:50:45.792Z,10.40
2022-11-10T00:51:45.801Z,10.40
2022-11-10T00:52:46.015Z,10.38
2022-11-10T00:53:45.735Z,10.40
2022-11-10T00:54:45.760Z,10.42
2022-11-10T00:55:45.714Z,10.40
2022-11-10T00:56:45.740Z,10.40
2022-11-10T00:57:45.695Z,10.40
2022-11-10T00:58:45.745Z,10.37
2022-11-10T00:59:45.708Z,10.37
2022-11-10T01:00:45.692Z,10.37
2022-11-10T01:01:45.676Z,10.37
2022-11-10T01:02:45.684Z,10.38
2022-11-10T01:03:45.648Z,10.38
2022-11-10T01:04:45.646Z,10.37
2022-11-10T01:05:45.613Z,10.38
2022-11-10T01:06:45.613Z,10.37
2022-11-10T01:07:45.609Z,10.35
2022-11-10T01:08:45.598Z,10.35
2022-11-10T01:09:45.559Z,10.34
2022-11-10T01:10:45.577Z,10.34
2022-11-10T01:11:45.530Z,10.35
2022-11-10T01:12:45.551Z,10.35
2022-11-10T01:13:45.513Z,10.34
2022-11-10T01:14:45.519Z,10.34
2022-11-10T01:15:45.489Z,10.35
2022-11-10T01:16:45.480Z,10.34
2022-11-10T01:17:45.481Z,10.34
2022-11-10T01:18:45.474Z,10.33
2022-11-10T01:19:45.479Z,10.35
2022-11-10T01:20:45.448Z,10.34
2022-11-10T01:21:45.421Z,10.34
2022-11-10T01:22:45.423Z,10.35
2022-11-10T01:23:45.426Z,10.37
2022-11-10T01:24:45.418Z,10.37
2022-11-10T01:25:45.381Z,10.41
2022-11-10T01:26:45.361Z,10.41
2022-11-10T01:27:45.382Z,10.42
2022-11-10T01:28:45.350Z,10.41
2022-11-10T01:29:45.359Z,10.40
2022-11-10T01:30:45.318Z,10.41
2022-11-10T01:31:45.334Z,10.38
2022-11-10T01:32:45.305Z,10.37
2022-11-10T01:33:45.296Z,10.35
2022-11-10T01:34:45.364Z,10.34
2022-11-10T01:35:45.293Z,10.34
2022-11-10T01:36:45.319Z,10.34
2022-11-10T01:37:45.253Z,10.30
2022-11-10T01:38:45.264Z,10.31
2022-11-10T01:39:45.233Z,10.33
2022-11-10T01:40:45.276Z,10.34
2022-11-10T01:41:45.195Z,10.35
2022-11-10T01:42:45.215Z,10.35
2022-11-10T01:43:45.198Z,10.35
2022-11-10T01:44:45.182Z,10.35
2022-11-10T01:45:45.158Z,10.34
2022-11-10T01:46:45.151Z,10.37
2022-11-10T01:47:45.170Z,10.34
2022-11-10T01:48:45.121Z,10.33
2022-11-10T01:49:45.128Z,10.35
2022-11-10T01:50:45.098Z,10.34
2022-11-10T01:51:45.089Z,10.35
2022-11-10T01:52:45.078Z,10.35
2022-11-10T01:53:45.104Z,10.33
2022-11-10T01:54:45.057Z,10.33
2022-11-10T01:55:45.055Z,10.33
2022-11-10T01:56:45.049Z,10.34
2022-11-10T01:57:45.018Z,10.33
2022-11-10T01:58:45.021Z,10.33
2022-11-10T01:59:45.043Z,10.33
2022-11-10T02:00:45.081Z,10.34
2022-11-10T02:01:45.046Z,10.33
2022-11-10T02:02:44.972Z,10.33
2022-11-10T02:03:44.963Z,10.33
2022-11-10T02:04:44.951Z,10.34
2022-11-10T02:05:44.971Z,10.34
2022-11-10T02:06:44.959Z,10.35
2022-11-10T02:07:44.907Z,10.35
2022-11-10T02:08:44.902Z,10.35
2022-11-10T02:09:44.896Z,10.35
2022-11-10T02:10:44.902Z,10.33
2022-11-10T02:11:44.893Z,10.31
2022-11-10T02:12:44.910Z,10.31
2022-11-10T02:13:44.842Z,10.30
2022-11-10T02:14:44.834Z,10.30
2022-11-10T02:15:44.818Z,10.28
2022-11-10T02:16:44.806Z,10.26
2022-11-10T02:17:44.824Z,10.26
2022-11-10T02:18:44.800Z,10.28
2022-11-10T02:19:44.784Z,10.26
2022-11-10T02:20:44.763Z,10.25
2022-11-10T02:21:44.755Z,10.25
2022-11-10T02:22:44.946Z,10.23
2022-11-10T02:23:44.746Z,10.22
2022-11-10T02:24:44.727Z,10.22
2022-11-10T02:25:44.736Z,10.22
2022-11-10T02:26:44.739Z,10.22
2022-11-10T02:27:44.700Z,10.25
2022-11-10T02:28:44.712Z,10.20
2022-11-10T02:29:44.686Z,10.17
2022-11-10T02:30:44.660Z,10.17
2022-11-10T02:31:44.662Z,10.15
2022-11-10T02:32:44.647Z,10.13
2022-11-10T02:33:44.607Z,10.13
2022-11-10T02:34:45.553Z,10.12
2022-11-10T02:35:44.610Z,10.10
2022-11-10T02:36:44.613Z,10.09
2022-11-10T02:37:44.568Z,10.07
2022-11-10T02:38:44.561Z,10.09
2022-11-10T02:39:44.569Z,10.09
2022-11-10T02:40:44.602Z,10.10
2022-11-10T02:41:44.541Z,10.07
2022-11-10T02:42:44.510Z,10.07
2022-11-10T02:43:44.505Z,10.04
2022-11-10T02:44:44.506Z,10.05
2022-11-10T02:45:44.512Z,10.05
2022-11-10T02:46:44.471Z,10.05
2022-11-10T02:47:44.452Z,10.05
2022-11-10T02:48:44.441Z,10.05
2022-11-10T02:49:44.435Z,10.04
2022-11-10T02:50:44.413Z,10.05
2022-11-10T02:51:44.423Z,10.07
2022-11-10T02:52:44.402Z,10.09
2022-11-10T02:53:44.395Z,10.12
2022-11-10T02:54:44.404Z,10.15
2022-11-10T02:55:44.375Z,10.15
2022-11-10T02:56:44.382Z,10.16
2022-11-10T02:57:44.347Z,10.15
2022-11-10T02:58:44.369Z,10.13
2022-11-10T02:59:44.345Z,10.13
2022-11-10T03:00:44.314Z,10.12
2022-11-10T03:01:44.394Z,10.12
2022-11-10T03:02:44.348Z,10.10
2022-11-10T03:03:44.279Z,10.07
2022-11-10T03:04:45.222Z,10.05
2022-11-10T03:05:44.265Z,10.09
2022-11-10T03:06:44.280Z,10.07
2022-11-10T03:07:44.234Z,10.05
2022-11-10T03:08:44.240Z,10.05
2022-11-10T03:09:44.217Z,10.05
2022-11-10T03:10:44.197Z,10.04
2022-11-10T03:11:44.242Z,10.05
2022-11-10T03:12:44.184Z,10.05
2022-11-10T03:14:00.213Z,10.07
2022-11-10T03:14:45.147Z,10.07
2022-11-10T03:15:44.157Z,10.09
2022-11-10T03:16:44.128Z,10.09
2022-11-10T03:17:44.148Z,10.10
2022-11-10T03:18:44.108Z,10.10
2022-11-10T03:19:44.099Z,10.13
2022-11-10T03:20:44.119Z,10.15
2022-11-10T03:21:44.113Z,10.13
2022-11-10T03:22:44.066Z,10.13
2022-11-10T03:23:44.055Z,10.16
2022-11-10T03:24:44.100Z,10.15
2022-11-10T03:25:44.054Z,10.16
2022-11-10T03:26:44.025Z,10.16
2022-11-10T03:27:44.001Z,10.16
2022-11-10T03:28:43.981Z,10.15
2022-11-10T03:29:43.988Z,10.17
2022-11-10T03:30:43.970Z,10.17
2022-11-10T03:31:44.956Z,10.17
2022-11-10T03:32:43.943Z,10.19
2022-11-10T03:33:43.937Z,10.17
2022-11-10T03:34:43.924Z,10.16
2022-11-10T03:35:43.932Z,10.16
2022-11-10T03:36:43.915Z,10.16
2022-11-10T03:37:43.951Z,10.19
2022-11-10T03:38:43.893Z,10.19
2022-11-10T03:39:43.895Z,10.19
2022-11-10T03:41:17.070Z,10.16
2022-11-10T03:41:44.853Z,10.16
2022-11-10T03:42:43.825Z,10.15
2022-11-10T03:43:43.849Z,10.16
2022-11-10T03:44:43.836Z,10.15
2022-11-10T03:45:43.816Z,10.16
2022-11-10T03:46:43.886Z,10.16
2022-11-10T03:47:43.805Z,10.15
2022-11-10T03:48:47.399Z,10.15
2022-11-10T03:49:44.766Z,10.13
2022-11-10T03:50:43.763Z,10.13
2022-11-10T03:51:43.730Z,10.12
2022-11-10T03:52:43.726Z,10.13
2022-11-10T03:53:43.740Z,10.13
2022-11-10T03:54:43.717Z,10.10
2022-11-10T03:55:43.730Z,10.10
2022-11-10T03:56:43.680Z,10.10
2022-11-10T03:57:43.678Z,10.07
2022-11-10T03:58:43.680Z,10.07
2022-11-10T03:59:43.682Z,10.07
2022-11-10T04:00:43.629Z,10.05
2022-11-10T04:01:43.698Z,10.07
2022-11-10T04:02:43.613Z,10.04
2022-11-10T04:03:46.282Z,10.04
2022-11-10T04:04:45.551Z,10.04
2022-11-10T04:05:43.582Z,10.05
2022-11-10T04:06:43.599Z,10.02
2022-11-10T04:07:43.551Z,10.04
2022-11-10T04:08:43.533Z,10.01
2022-11-10T04:09:43.549Z,10.01
2022-11-10T04:10:43.522Z,9.99
2022-11-10T04:11:43.516Z,9.98
2022-11-10T04:12:43.509Z,9.98
2022-11-10T04:13:43.515Z,9.98
2022-11-10T04:14:43.481Z,9.97
2022-11-10T04:15:43.483Z,9.95
2022-11-10T04:16:43.460Z,9.95
2022-11-10T04:17:43.471Z,9.95
2022-11-10T04:18:43.437Z,9.95
2022-11-10T04:19:43.449Z,9.97
2022-11-10T04:20:43.417Z,9.97
2022-11-10T04:21:44.899Z,9.95
2022-11-10T04:22:43.455Z,9.94
2022-11-10T04:23:43.393Z,9.94
2022-11-10T04:24:43.364Z,9.92
2022-11-10T04:25:43.384Z,9.92
2022-11-10T04:26:43.334Z,9.87
2022-11-10T04:27:43.325Z,9.87
2022-11-10T04:28:43.363Z,9.87
2022-11-10T04:29:43.301Z,9.86
2022-11-10T04:30:43.289Z,9.89
2022-11-10T04:31:43.297Z,9.86
2022-11-10T04:32:43.285Z,9.86
2022-11-10T04:33:43.306Z,9.86
2022-11-10T04:34:43.230Z,9.84
2022-11-10T04:35:43.266Z,9.86
2022-11-10T04:36:43.217Z,9.84
2022-11-10T04:37:43.208Z,9.86
2022-11-10T04:38:43.210Z,9.84
2022-11-10T04:39:43.194Z,9.83
2022-11-10T04:40:43.168Z,9.84
2022-11-10T04:41:43.187Z,9.84
2022-11-10T04:42:43.149Z,9.87
2022-11-10T04:43:43.148Z,9.86
2022-11-10T04:44:43.148Z,9.86
2022-11-10T04:45:43.123Z,9.86
2022-11-10T04:46:43.101Z,9.87
2022-11-10T04:47:43.091Z,9.89
2022-11-10T04:48:43.101Z,9.91
2022-11-10T04:49:43.084Z,9.87
2022-11-10T04:50:43.077Z,9.86
2022-11-10T04:51:43.076Z,9.80
2022-11-10T04:52:43.038Z,9.82
2022-11-10T04:53:44.040Z,9.80
2022-11-10T04:54:43.014Z,9.79
2022-11-10T04:55:43.012Z,9.77
2022-11-10T04:56:42.993Z,9.76
2022-11-10T04:57:42.991Z,9.74
2022-11-10T04:58:42.971Z,9.72
2022-11-10T04:59:43.012Z,9.72
2022-11-10T05:00:43.024Z,9.69
2022-11-10T05:01:42.970Z,9.66
2022-11-10T05:02:42.954Z,9.66
2022-11-10T05:03:42.918Z,9.66
2022-11-10T05:04:42.915Z,9.65
2022-11-10T05:05:42.941Z,9.65
2022-11-10T05:06:42.934Z,9.65
2022-11-10T05:07:42.908Z,9.64
2022-11-10T05:08:42.861Z,9.64
2022-11-10T05:09:42.851Z,9.62
2022-11-10T05:10:42.866Z,9.62
2022-11-10T05:11:42.827Z,9.62
2022-11-10T05:12:42.838Z,9.62
2022-11-10T05:13:42.801Z,9.62
2022-11-10T05:14:42.799Z,9.61
2022-11-10T05:15:42.822Z,9.62
2022-11-10T05:16:42.777Z,9.61
2022-11-10T05:17:42.767Z,9.61
2022-11-10T05:18:42.760Z,9.64
2022-11-10T05:19:42.744Z,9.64
2022-11-10T05:20:42.750Z,9.66
2022-11-10T05:21:42.759Z,9.68
2022-11-10T05:22:47.946Z,9.69
2022-11-10T05:23:43.700Z,9.69
2022-11-10T05:24:42.694Z,9.72
2022-11-10T05:25:42.663Z,9.72
2022-11-10T05:26:43.609Z,9.69
2022-11-10T05:27:42.840Z,9.72
2022-11-10T05:28:42.641Z,9.72
2022-11-10T05:29:42.631Z,9.74
2022-11-10T05:30:42.620Z,9.79
2022-11-10T05:31:42.604Z,9.79
2022-11-10T05:32:42.643Z,9.80
2022-11-10T05:33:42.633Z,9.83
2022-11-10T05:34:42.571Z,9.83
2022-11-10T05:35:42.574Z,9.82
2022-11-10T05:36:42.561Z,9.82
2022-11-10T05:37:42.546Z,9.83
2022-11-10T05:38:43.854Z,9.83
2022-11-10T05:39:42.551Z,9.82
2022-11-10T05:40:42.518Z,9.80
2022-11-10T05:41:42.498Z,9.79
2022-11-10T05:42:42.487Z,9.77
2022-11-10T05:43:42.494Z,9.77
2022-11-10T05:44:42.492Z,9.79
2022-11-10T05:45:42.455Z,9.80
2022-11-10T05:46:42.469Z,9.80
2022-11-10T05:47:42.434Z,9.80
2022-11-10T05:48:43.387Z,9.79
2022-11-10T05:49:42.446Z,9.77
2022-11-10T05:50:42.392Z,9.77
2022-11-10T05:51:43.343Z,9.76
2022-11-10T05:52:47.596Z,9.74
2022-11-10T05:53:43.355Z,9.74
2022-11-10T05:54:42.337Z,9.76
2022-11-10T05:55:42.356Z,9.73
2022-11-10T05:56:42.320Z,9.73
2022-11-10T05:57:42.342Z,9.72
2022-11-10T05:58:42.300Z,9.69
2022-11-10T05:59:42.291Z,9.69
2022-11-10T06:00:42.309Z,9.69
2022-11-10T06:01:42.266Z,9.68
2022-11-10T06:02:42.252Z,9.69
2022-11-10T06:03:42.273Z,9.68
2022-11-10T06:04:42.255Z,9.69
2022-11-10T06:05:42.229Z,9.68
2022-11-10T06:06:42.285Z,9.69
2022-11-10T06:07:42.228Z,9.66
2022-11-10T06:08:42.194Z,9.66
2022-11-10T06:09:42.183Z,9.65
2022-11-10T06:10:42.179Z,9.65
2022-11-10T06:11:42.181Z,9.68
2022-11-10T06:12:42.169Z,9.68
2022-11-10T06:13:42.156Z,9.66
2022-11-10T06:14:42.153Z,9.69
2022-11-10T06:15:47.562Z,9.68
2022-11-10T06:16:43.100Z,9.69
2022-11-10T06:17:42.111Z,9.69
2022-11-10T06:18:42.093Z,9.69
2022-11-10T06:19:42.074Z,9.72
2022-11-10T06:20:42.062Z,9.68
2022-11-10T06:21:42.033Z,9.68
2022-11-10T06:22:42.048Z,9.72
2022-11-10T06:23:42.065Z,9.74
2022-11-10T06:24:42.005Z,9.76
2022-11-10T06:25:41.991Z,9.77
2022-11-10T06:26:42.035Z,9.79
2022-11-10T06:27:41.963Z,9.80
2022-11-10T06:28:41.976Z,9.80
2022-11-10T06:29:41.953Z,9.82
2022-11-10T06:30:41.958Z,9.83
2022-11-10T06:31:41.938Z,9.83
2022-11-10T06:32:41.963Z,9.82
2022-11-10T06:33:41.919Z,9.82
2022-11-10T06:34:41.905Z,9.83
2022-11-10T06:35:41.894Z,9.83
2022-11-10T06:36:41.901Z,9.80
2022-11-10T06:37:41.881Z,9.80
2022-11-10T06:38:41.854Z,9.82
2022-11-10T06:39:41.846Z,9.83
2022-11-10T06:40:41.832Z,9.83
2022-11-10T06:41:41.827Z,9.83
2022-11-10T06:42:42.786Z,9.83
2022-11-10T06:43:41.816Z,9.83
2022-11-10T06:44:41.782Z,9.83
2022-11-10T06:45:41.765Z,9.83
2022-11-10T06:46:42.523Z,9.84
2022-11-10T06:47:41.772Z,9.87
2022-11-10T06:48:41.740Z,9.87
2022-11-10T06:49:41.912Z,9.86
2022-11-10T06:50:41.708Z,9.83
2022-11-10T06:51:41.761Z,9.80
2022-11-10T06:52:41.733Z,9.80
2022-11-10T06:53:41.677Z,9.77
2022-11-10T06:54:41.896Z,9.77
2022-11-10T06:55:41.654Z,9.76
2022-11-10T06:56:41.790Z,9.73
2022-11-10T06:57:41.645Z,9.72
2022-11-10T06:58:41.655Z,9.72
2022-11-10T06:59:41.845Z,9.72
2022-11-10T07:00:41.656Z,9.69
2022-11-10T07:01:42.613Z,9.66
2022-11-10T07:02:41.894Z,9.65
2022-11-10T07:04:05.215Z,9.64
2022-11-10T07:04:42.636Z,9.64
2022-11-10T07:05:41.549Z,9.64
2022-11-10T07:06:41.571Z,9.65
2022-11-10T07:07:41.523Z,9.66
2022-11-10T07:08:41.630Z,9.69
2022-11-10T07:09:41.535Z,9.69
2022-11-10T07:10:41.492Z,9.68
2022-11-10T07:11:42.424Z,9.72
2022-11-10T07:12:41.516Z,9.74
2022-11-10T07:13:41.489Z,9.76
2022-11-10T07:14:41.447Z,9.79
2022-11-10T07:15:41.436Z,9.82
2022-11-10T07:16:41.465Z,9.84
2022-11-10T07:17:42.431Z,9.87
2022-11-10T07:18:41.407Z,9.91
2022-11-10T07:19:41.850Z,9.94
2022-11-10T07:20:42.334Z,9.95
2022-11-10T07:21:41.376Z,9.98
2022-11-10T07:22:41.377Z,9.99
2022-11-10T07:23:41.339Z,9.98
2022-11-10T07:24:41.360Z,9.98
2022-11-10T07:25:41.320Z,9.98
2022-11-10T07:26:41.324Z,9.98
2022-11-10T07:27:41.300Z,9.97
2022-11-10T07:28:41.313Z,9.97
2022-11-10T07:29:41.298Z,9.97
2022-11-10T07:30:41.289Z,9.98
2022-11-10T07:31:41.260Z,9.95
2022-11-10T07:32:41.249Z,9.97
2022-11-10T07:33:41.748Z,9.98
2022-11-10T07:34:41.543Z,9.98
2022-11-10T07:35:41.563Z,9.99
2022-11-10T07:36:41.205Z,9.99
2022-11-10T07:37:41.181Z,9.99
2022-11-10T07:38:41.211Z,9.99
2022-11-10T07:39:41.180Z,10.01
2022-11-10T07:40:41.150Z,10.01
2022-11-10T07:41:41.152Z,10.04
2022-11-10T07:42:41.297Z,10.04
2022-11-10T07:43:41.131Z,10.10
2022-11-10T07:44:41.104Z,10.12
2022-11-10T07:45:41.115Z,10.12
2022-11-10T07:46:41.277Z,10.15
2022-11-10T07:47:41.124Z,10.15
2022-11-10T07:48:41.077Z,10.16
2022-11-10T07:49:41.083Z,10.19
2022-11-10T07:50:41.063Z,10.20
2022-11-10T07:51:41.044Z,10.25
2022-11-10T07:52:41.021Z,10.25
2022-11-10T07:53:41.023Z,10.26
2022-11-10T07:54:40.993Z,10.28
2022-11-10T07:55:41.005Z,10.30
2022-11-10T07:56:40.997Z,10.31
2022-11-10T07:57:40.969Z,10.33
2022-11-10T07:58:40.966Z,10.33
2022-11-10T07:59:40.971Z,10.34
2022-11-10T08:00:40.940Z,10.34
2022-11-10T08:01:41.041Z,10.35
2022-11-10T08:02:40.895Z,10.37
2022-11-10T08:03:40.894Z,10.41
2022-11-10T08:04:40.897Z,10.44
2022-11-10T08:05:40.886Z,10.48
2022-11-10T08:06:41.010Z,10.49
2022-11-10T08:07:40.923Z,10.53
2022-11-10T08:08:40.851Z,10.56
2022-11-10T08:09:40.826Z,10.56
2022-11-10T08:10:40.835Z,10.59
2022-11-10T08:11:40.802Z,10.60
2022-11-10T08:12:40.800Z,10.63
2022-11-10T08:13:41.750Z,10.69
2022-11-10T08:14:41.329Z,10.71
2022-11-10T08:15:40.812Z,10.74
2022-11-10T08:16:41.717Z,10.75
2022-11-10T08:17:40.780Z,10.78
2022-11-10T08:18:40.933Z,10.78
2022-11-10T08:19:40.785Z,10.79
2022-11-10T08:20:40.713Z,10.82
2022-11-10T08:21:40.694Z,10.86
2022-11-10T08:22:40.699Z,10.87
2022-11-10T08:23:40.663Z,10.89
2022-11-10T08:24:40.669Z,10.90
2022-11-10T08:25:41.453Z,10.92
2022-11-10T08:26:40.633Z,10.93
2022-11-10T08:27:40.667Z,10.94
2022-11-10T08:28:40.611Z,10.96
2022-11-10T08:29:40.804Z,10.97
2022-11-10T08:30:40.595Z,10.99
2022-11-10T08:31:40.589Z,11.02
2022-11-10T08:32:40.579Z,11.05
2022-11-10T08:33:40.595Z,11.05
2022-11-10T08:34:40.551Z,11.07
2022-11-10T08:35:40.593Z,11.10
2022-11-10T08:36:40.533Z,11.11
2022-11-10T08:37:40.548Z,11.12
2022-11-10T08:38:40.530Z,11.14
2022-11-10T08:39:40.484Z,11.18
2022-11-10T08:40:40.525Z,11.19
2022-11-10T08:41:40.454Z,11.19
2022-11-10T08:42:40.472Z,11.23
2022-11-10T08:43:40.462Z,11.23
2022-11-10T08:44:40.436Z,11.23
2022-11-10T08:45:40.489Z,11.25
2022-11-10T08:46:40.456Z,11.25
2022-11-10T08:47:40.401Z,11.25
2022-11-10T08:48:40.398Z,11.25
2022-11-10T08:49:41.327Z,11.27
2022-11-10T08:50:40.385Z,11.27
2022-11-10T08:51:40.913Z,11.29
2022-11-10T08:52:40.474Z,11.32
2022-11-10T08:53:41.796Z,11.35
2022-11-10T08:54:40.323Z,11.40
2022-11-10T08:55:40.415Z,11.43
2022-11-10T08:56:40.342Z,11.44
2022-11-10T08:57:40.510Z,11.47
2022-11-10T08:58:50.164Z,11.50
2022-11-10T08:59:41.265Z,11.52
2022-11-10T09:00:40.259Z,11.55
2022-11-10T09:01:40.250Z,11.59
2022-11-10T09:02:40.251Z,11.63
2022-11-10T09:03:40.412Z,11.65
2022-11-10T09:04:40.308Z,11.68
2022-11-10T09:05:40.226Z,11.69
2022-11-10T09:06:40.776Z,11.73
2022-11-10T09:07:40.212Z,11.80
2022-11-10T09:08:40.241Z,11.84
2022-11-10T09:09:40.142Z,11.88
2022-11-10T09:10:40.166Z,11.91
2022-11-10T09:11:40.133Z,11.94
2022-11-10T09:12:40.547Z,11.97
2022-11-10T09:13:40.125Z,11.95
2022-11-10T09:14:40.137Z,11.99
2022-11-10T09:15:40.099Z,12.02
2022-11-10T09:16:40.093Z,12.04
2022-11-10T09:17:40.064Z,12.06
2022-11-10T09:18:40.066Z,12.07
2022-11-10T09:19:40.103Z,12.09
2022-11-10T09:20:40.086Z,12.12
2022-11-10T09:21:40.036Z,12.15
2022-11-10T09:22:40.005Z,12.18
2022-11-10T09:23:39.985Z,12.21
2022-11-10T09:24:39.976Z,12.25
2022-11-10T09:25:40.010Z,12.28
2022-11-10T09:26:40.017Z,12.31
2022-11-10T09:27:39.968Z,12.35
2022-11-10T09:28:39.940Z,12.39
2022-11-10T09:29:39.949Z,12.42
2022-11-10T09:30:39.919Z,12.46
2022-11-10T09:31:39.940Z,12.47
2022-11-10T09:32:39.926Z,12.49
2022-11-10T09:33:39.949Z,12.53
2022-11-10T09:34:39.868Z,12.57
2022-11-10T09:35:39.870Z,12.60
2022-11-10T09:36:39.871Z,12.60
2022-11-10T09:37:39.844Z,12.60
2022-11-10T09:38:39.827Z,12.60
2022-11-10T09:39:39.842Z,12.61
2022-11-10T09:40:39.802Z,12.62
2022-11-10T09:41:39.808Z,12.65
2022-11-10T09:42:39.772Z,12.64
2022-11-10T09:43:39.772Z,12.65
2022-11-10T09:44:39.781Z,12.67
2022-11-10T09:45:39.781Z,12.72
2022-11-10T09:46:39.758Z,12.72
2022-11-10T09:47:56.856Z,12.75
2022-11-10T09:48:41.714Z,12.78
2022-11-10T09:49:39.713Z,12.79
2022-11-10T09:50:39.715Z,12.83
2022-11-10T09:51:42.817Z,12.87
2022-11-10T09:52:40.666Z,12.90
2022-11-10T09:53:39.644Z,12.93
2022-11-10T09:54:39.684Z,12.95
2022-11-10T09:55:39.643Z,12.98
2022-11-10T09:56:39.622Z,13.01
2022-11-10T09:57:40.912Z,13.01
2022-11-10T09:58:39.594Z,13.03
2022-11-10T09:59:39.634Z,13.04
2022-11-10T10:00:39.565Z,13.08
2022-11-10T10:01:39.628Z,13.08
2022-11-10T10:02:41.018Z,13.11
2022-11-10T10:03:39.556Z,13.13
2022-11-10T10:04:43.214Z,13.12
2022-11-10T10:05:40.570Z,13.15
2022-11-10T10:07:04.803Z,13.16
2022-11-10T10:07:40.518Z,13.19
2022-11-10T10:08:39.487Z,13.19
2022-11-10T10:09:39.482Z,13.20
2022-11-10T10:10:39.458Z,13.22
2022-11-10T10:11:39.499Z,13.25
2022-11-10T10:12:39.438Z,13.25
2022-11-10T10:13:39.428Z,13.27
2022-11-10T10:14:39.423Z,13.28
2022-11-10T10:15:39.399Z,13.30
2022-11-10T10:16:39.398Z,13.31
2022-11-10T10:17:41.365Z,13.37
2022-11-10T10:18:39.379Z,13.39
2022-11-10T10:19:39.996Z,13.41
2022-11-10T10:20:39.361Z,13.46
2022-11-10T10:21:39.339Z,13.49
2022-11-10T10:22:39.342Z,13.52
2022-11-10T10:24:07.695Z,13.53
2022-11-10T10:24:40.341Z,13.56
2022-11-10T10:25:39.304Z,13.56
2022-11-10T10:26:39.312Z,13.57
2022-11-10T10:27:39.274Z,13.59
2022-11-10T10:28:39.263Z,13.62
2022-11-10T10:29:39.252Z,13.67
2022-11-10T10:30:39.235Z,13.68
2022-11-10T10:31:39.223Z,13.71
2022-11-10T10:32:39.266Z,13.74
2022-11-10T10:33:39.205Z,13.75
2022-11-10T10:34:39.196Z,13.74
2022-11-10T10:35:41.769Z,13.75
2022-11-10T10:36:39.175Z,13.78
2022-11-10T10:37:39.421Z,13.78
2022-11-10T10:38:39.166Z,13.79
2022-11-10T10:39:39.137Z,13.85
2022-11-10T10:40:39.156Z,13.85
2022-11-10T10:41:39.118Z,13.86
2022-11-10T10:42:39.143Z,13.87
2022-11-10T10:43:39.105Z,13.89
2022-11-10T10:44:39.183Z,13.87
2022-11-10T10:45:39.135Z,13.86
2022-11-10T10:46:39.090Z,13.86
2022-11-10T10:47:39.998Z,13.86
2022-11-10T10:48:39.042Z,13.86
2022-11-10T10:49:39.069Z,13.87
2022-11-10T10:50:40.469Z,13.89
2022-11-10T10:51:39.131Z,13.90
2022-11-10T10:52:39.943Z,13.92
2022-11-10T10:53:38.991Z,13.95
2022-11-10T10:54:38.959Z,13.96
2022-11-10T10:55:38.980Z,14.00
2022-11-10T10:56:38.951Z,14.04
2022-11-10T10:57:38.941Z,14.08
2022-11-10T10:58:38.919Z,14.11
2022-11-10T10:59:38.929Z,14.14
2022-11-10T11:00:38.893Z,14.17
2022-11-10T11:01:39.081Z,14.20
2022-11-10T11:02:38.874Z,14.23
2022-11-10T11:03:38.930Z,14.23
2022-11-10T11:04:38.869Z,14.25
2022-11-10T11:05:38.897Z,14.26
2022-11-10T11:06:38.895Z,14.25
2022-11-10T11:07:38.829Z,14.25
2022-11-10T11:08:38.819Z,14.26
2022-11-10T11:09:38.796Z,14.28
2022-11-10T11:10:38.793Z,14.29
2022-11-10T11:11:38.812Z,14.32
2022-11-10T11:12:38.775Z,14.33
2022-11-10T11:13:38.760Z,14.33
2022-11-10T11:14:43.328Z,14.35
2022-11-10T11:15:39.723Z,14.36
2022-11-10T11:16:38.754Z,14.36
2022-11-10T11:17:38.749Z,14.37
2022-11-10T11:18:39.670Z,14.41
2022-11-10T11:19:38.687Z,14.41
2022-11-10T11:20:38.671Z,14.45
2022-11-10T11:21:38.680Z,14.47
2022-11-10T11:22:38.678Z,14.50
2022-11-10T11:23:38.637Z,14.51
2022-11-10T11:24:38.624Z,14.53
2022-11-10T11:25:38.630Z,14.58
2022-11-10T11:26:38.636Z,14.60
2022-11-10T11:27:38.597Z,14.65
2022-11-10T11:28:39.524Z,14.69
2022-11-10T11:29:38.611Z,14.72
2022-11-10T11:30:38.570Z,14.73
2022-11-10T11:31:42.890Z,14.73
2022-11-10T11:32:38.562Z,14.77
2022-11-10T11:33:38.529Z,14.81
2022-11-10T11:34:38.554Z,14.82
2022-11-10T11:35:38.522Z,14.85
2022-11-10T11:36:38.492Z,14.86
2022-11-10T11:37:38.482Z,14.89
2022-11-10T11:38:38.952Z,14.92
2022-11-10T11:39:38.496Z,14.94
2022-11-10T11:40:38.445Z,14.97
2022-11-10T11:41:38.452Z,14.99
2022-11-10T11:42:38.414Z,15.00
2022-11-10T11:43:38.422Z,15.04
2022-11-10T11:44:38.419Z,15.06
2022-11-10T11:45:38.393Z,15.10
2022-11-10T11:46:38.402Z,15.10
2022-11-10T11:47:38.365Z,15.14
2022-11-10T11:48:38.357Z,15.10
2022-11-10T11:49:38.348Z,15.11
2022-11-10T11:50:38.373Z,15.14
2022-11-10T11:51:38.345Z,15.17
2022-11-10T11:52:38.407Z,15.19
2022-11-10T11:53:38.295Z,15.21
2022-11-10T11:54:38.276Z,15.24
2022-11-10T11:55:38.278Z,15.25
2022-11-10T11:56:38.287Z,15.28
2022-11-10T11:57:40.210Z,15.31
2022-11-10T11:58:38.252Z,15.33
2022-11-10T11:59:38.237Z,15.39
2022-11-10T12:00:38.305Z,15.43
2022-11-10T12:01:38.219Z,15.51
2022-11-10T12:02:38.287Z,15.55
2022-11-10T12:03:38.253Z,15.62
2022-11-10T12:04:38.176Z,15.72
2022-11-10T12:05:38.158Z,15.73
2022-11-10T12:06:38.187Z,15.75
2022-11-10T12:07:38.162Z,15.77
2022-11-10T12:08:38.392Z,15.80
2022-11-10T12:09:38.123Z,15.83
2022-11-10T12:10:42.821Z,15.84
2022-11-10T12:11:39.141Z,15.86
2022-11-10T12:12:38.102Z,15.90
2022-11-10T12:13:38.084Z,15.92
2022-11-10T12:14:38.056Z,15.97
2022-11-10T12:15:38.056Z,15.98
2022-11-10T12:16:38.048Z,16.01
2022-11-10T12:17:38.042Z,16.01
2022-11-10T12:18:38.021Z,16.02
2022-11-10T12:19:38.008Z,16.02
2022-11-10T12:20:37.998Z,16.04
2022-11-10T12:21:38.023Z,16.02
2022-11-10T12:22:37.966Z,16.02
2022-11-10T12:23:37.966Z,16.01
2022-11-10T12:24:37.943Z,16.02
2022-11-10T12:25:37.936Z,16.01
2022-11-10T12:26:37.935Z,16.04
2022-11-10T12:27:37.934Z,16.04
2022-11-10T12:28:37.904Z,16.04
2022-11-10T12:29:37.917Z,16.04
2022-11-10T12:30:37.907Z,16.13
2022-11-10T12:31:37.870Z,16.26
2022-11-10T12:32:37.993Z,16.41
2022-11-10T12:33:37.856Z,16.53
2022-11-10T12:34:37.901Z,16.61
2022-11-10T12:35:37.824Z,16.66
2022-11-10T12:36:37.809Z,16.72
2022-11-10T12:37:37.812Z,16.78
2022-11-10T12:38:37.787Z,16.83
2022-11-10T12:39:37.810Z,16.89
2022-11-10T12:40:41.594Z,16.93
2022-11-10T12:41:37.769Z,16.96
2022-11-10T12:42:37.760Z,16.99
2022-11-10T12:43:37.756Z,17.05
2022-11-10T12:44:37.748Z,17.11
2022-11-10T12:45:37.752Z,17.15
2022-11-10T12:46:38.641Z,17.15
2022-11-10T12:47:37.692Z,17.11
2022-11-10T12:48:37.700Z,17.02
2022-11-10T12:49:38.623Z,16.97
2022-11-10T12:50:37.656Z,16.94
2022-11-10T12:51:37.657Z,16.93
2022-11-10T12:52:37.639Z,16.87
2022-11-10T12:53:37.671Z,16.78
2022-11-10T12:54:37.646Z,16.83
2022-11-10T12:55:37.609Z,16.86
2022-11-10T12:56:37.583Z,16.91
2022-11-10T12:57:37.623Z,17.02
2022-11-10T12:58:37.575Z,17.06
2022-11-10T12:59:37.594Z,17.02